sensor_id;sensor_type;location;lat;lon;timestamp;P1;durP1;ratioP1;P2;durP2;ratioP2
42336;SDS011;27987;51.468;5.464;2022-07-29T00:02:00;7.25;;;1.40;;
42336;SDS011;27987;51.468;5.464;2022-07-29T00:04:27;3.63;;;1.35;;
42336;SDS011;27987;51.468;5.464;2022-07-29T00:06:54;3.40;;;1.30;;
42336;SDS011;27987;51.468;5.464;2022-07-29T00:09:21;5.65;;;1.60;;
42336;SDS011;27987;51.468;5.464;2022-07-29T00:11:48;8.35;;;1.30;;
42336;SDS011;27987;51.468;5.464;2022-07-29T00:14:16;4.55;;;1.40;;
42336;SDS011;27987;51.468;5.464;2022-07-29T00:16:43;5.07;;;1.10;;
42336;SDS011;27987;51.468;5.464;2022-07-29T00:19:10;10.50;;;1.58;;
42336;SDS011;27987;51.468;5.464;2022-07-29T00:21:37;5.05;;;1.58;;
42336;SDS011;27987;51.468;5.464;2022-07-29T00:24:04;4.47;;;1.38;;
42336;SDS011;27987;51.468;5.464;2022-07-29T00:26:34;5.43;;;1.42;;
42336;SDS011;27987;51.468;5.464;2022-07-29T00:29:01;4.13;;;1.30;;
42336;SDS011;27987;51.468;5.464;2022-07-29T00:31:31;5.85;;;1.40;;
42336;SDS011;27987;51.468;5.464;2022-07-29T00:33:58;6.97;;;1.70;;
42336;SDS011;27987;51.468;5.464;2022-07-29T00:36:25;8.10;;;1.60;;
42336;SDS011;27987;51.468;5.464;2022-07-29T00:38:51;5.40;;;1.30;;
42336;SDS011;27987;51.468;5.464;2022-07-29T00:41:18;6.90;;;1.67;;
42336;SDS011;27987;51.468;5.464;2022-07-29T00:43:45;10.82;;;1.92;;
42336;SDS011;27987;51.468;5.464;2022-07-29T00:46:12;9.35;;;1.50;;
42336;SDS011;27987;51.468;5.464;2022-07-29T00:48:40;4.63;;;1.30;;
42336;SDS011;27987;51.468;5.464;2022-07-29T00:51:07;3.67;;;1.10;;
42336;SDS011;27987;51.468;5.464;2022-07-29T00:53:35;6.60;;;1.30;;
42336;SDS011;27987;51.468;5.464;2022-07-29T00:56:03;3.72;;;1.35;;
42336;SDS011;27987;51.468;5.464;2022-07-29T00:58:30;6.65;;;1.58;;
42336;SDS011;27987;51.468;5.464;2022-07-29T01:00:58;9.68;;;2.45;;
42336;SDS011;27987;51.468;5.464;2022-07-29T01:03:24;5.95;;;2.80;;
42336;SDS011;27987;51.468;5.464;2022-07-29T01:05:53;12.15;;;3.60;;
42336;SDS011;27987;51.468;5.464;2022-07-29T01:08:20;11.70;;;5.05;;
42336;SDS011;27987;51.468;5.464;2022-07-29T01:10:49;17.88;;;5.68;;
42336;SDS011;27987;51.468;5.464;2022-07-29T01:13:18;7.43;;;4.25;;
42336;SDS011;27987;51.468;5.464;2022-07-29T01:15:50;11.20;;;4.00;;
42336;SDS011;27987;51.468;5.464;2022-07-29T01:18:24;10.45;;;3.58;;
42336;SDS011;27987;51.468;5.464;2022-07-29T01:21:07;15.35;;;4.30;;
42336;SDS011;27987;51.468;5.464;2022-07-29T01:24:06;10.73;;;3.83;;
42336;SDS011;27987;51.468;5.464;2022-07-29T01:26:52;7.32;;;3.17;;
42336;SDS011;27987;51.468;5.464;2022-07-29T01:29:26;5.88;;;3.17;;
42336;SDS011;27987;51.468;5.464;2022-07-29T01:31:56;9.55;;;3.30;;
42336;SDS011;27987;51.468;5.464;2022-07-29T01:34:30;10.45;;;2.65;;
42336;SDS011;27987;51.468;5.464;2022-07-29T01:37:05;10.02;;;2.42;;
42336;SDS011;27987;51.468;5.464;2022-07-29T01:39:40;7.30;;;2.45;;
42336;SDS011;27987;51.468;5.464;2022-07-29T01:42:12;6.75;;;2.70;;
42336;SDS011;27987;51.468;5.464;2022-07-29T01:44:48;8.93;;;3.03;;
42336;SDS011;27987;51.468;5.464;2022-07-29T01:47:23;7.05;;;3.03;;
42336;SDS011;27987;51.468;5.464;2022-07-29T01:49:58;8.35;;;3.35;;
42336;SDS011;27987;51.468;5.464;2022-07-29T01:52:38;6.72;;;3.47;;
42336;SDS011;27987;51.468;5.464;2022-07-29T01:55:11;6.00;;;2.95;;
42336;SDS011;27987;51.468;5.464;2022-07-29T01:57:42;7.28;;;2.90;;
42336;SDS011;27987;51.468;5.464;2022-07-29T02:02:42;7.10;;;2.92;;
42336;SDS011;27987;51.468;5.464;2022-07-29T02:05:13;10.10;;;3.40;;
42336;SDS011;27987;51.468;5.464;2022-07-29T02:07:44;9.20;;;3.40;;
42336;SDS011;27987;51.468;5.464;2022-07-29T02:10:14;8.82;;;3.78;;
42336;SDS011;27987;51.468;5.464;2022-07-29T02:12:42;12.57;;;3.05;;
42336;SDS011;27987;51.468;5.464;2022-07-29T02:15:10;7.63;;;2.90;;
42336;SDS011;27987;51.468;5.464;2022-07-29T02:17:41;7.53;;;3.55;;
42336;SDS011;27987;51.468;5.464;2022-07-29T02:20:11;6.05;;;3.00;;
42336;SDS011;27987;51.468;5.464;2022-07-29T02:22:39;9.85;;;2.88;;
42336;SDS011;27987;51.468;5.464;2022-07-29T02:25:07;8.50;;;2.80;;
42336;SDS011;27987;51.468;5.464;2022-07-29T02:27:36;6.35;;;3.00;;
42336;SDS011;27987;51.468;5.464;2022-07-29T02:30:06;7.45;;;2.90;;
42336;SDS011;27987;51.468;5.464;2022-07-29T02:32:35;7.88;;;3.08;;
42336;SDS011;27987;51.468;5.464;2022-07-29T02:35:05;9.00;;;3.10;;
42336;SDS011;27987;51.468;5.464;2022-07-29T02:37:34;8.57;;;3.13;;
42336;SDS011;27987;51.468;5.464;2022-07-29T02:40:02;11.00;;;3.28;;
42336;SDS011;27987;51.468;5.464;2022-07-29T02:42:34;8.25;;;3.08;;
42336;SDS011;27987;51.468;5.464;2022-07-29T02:45:04;8.73;;;3.10;;
42336;SDS011;27987;51.468;5.464;2022-07-29T02:47:36;7.13;;;3.05;;
42336;SDS011;27987;51.468;5.464;2022-07-29T02:50:15;7.68;;;2.80;;
42336;SDS011;27987;51.468;5.464;2022-07-29T02:52:50;8.27;;;3.00;;
42336;SDS011;27987;51.468;5.464;2022-07-29T02:55:26;9.55;;;3.33;;
42336;SDS011;27987;51.468;5.464;2022-07-29T02:57:59;9.50;;;3.22;;
42336;SDS011;27987;51.468;5.464;2022-07-29T03:00:30;6.95;;;2.97;;
42336;SDS011;27987;51.468;5.464;2022-07-29T03:03:03;5.57;;;3.08;;
42336;SDS011;27987;51.468;5.464;2022-07-29T03:05:42;9.43;;;3.03;;
42336;SDS011;27987;51.468;5.464;2022-07-29T03:08:10;5.78;;;3.03;;
42336;SDS011;27987;51.468;5.464;2022-07-29T03:10:39;7.00;;;2.63;;
42336;SDS011;27987;51.468;5.464;2022-07-29T03:13:12;8.93;;;3.33;;
42336;SDS011;27987;51.468;5.464;2022-07-29T03:15:41;10.23;;;3.67;;
42336;SDS011;27987;51.468;5.464;2022-07-29T03:18:09;9.20;;;3.20;;
42336;SDS011;27987;51.468;5.464;2022-07-29T03:20:36;6.85;;;3.05;;
42336;SDS011;27987;51.468;5.464;2022-07-29T03:23:05;10.15;;;3.38;;
42336;SDS011;27987;51.468;5.464;2022-07-29T03:25:35;9.73;;;3.00;;
42336;SDS011;27987;51.468;5.464;2022-07-29T03:28:02;7.97;;;3.10;;
42336;SDS011;27987;51.468;5.464;2022-07-29T03:30:29;10.02;;;3.80;;
42336;SDS011;27987;51.468;5.464;2022-07-29T03:32:56;9.88;;;3.65;;
42336;SDS011;27987;51.468;5.464;2022-07-29T03:35:23;6.35;;;3.53;;
42336;SDS011;27987;51.468;5.464;2022-07-29T03:37:50;12.18;;;4.05;;
42336;SDS011;27987;51.468;5.464;2022-07-29T03:40:19;6.47;;;4.05;;
42336;SDS011;27987;51.468;5.464;2022-07-29T03:42:51;10.38;;;4.07;;
42336;SDS011;27987;51.468;5.464;2022-07-29T03:45:21;5.80;;;3.72;;
42336;SDS011;27987;51.468;5.464;2022-07-29T03:47:51;11.30;;;3.53;;
42336;SDS011;27987;51.468;5.464;2022-07-29T03:50:23;7.90;;;4.03;;
42336;SDS011;27987;51.468;5.464;2022-07-29T03:52:50;8.57;;;4.20;;
42336;SDS011;27987;51.468;5.464;2022-07-29T03:55:19;11.27;;;4.43;;
42336;SDS011;27987;51.468;5.464;2022-07-29T03:57:46;11.38;;;4.60;;
42336;SDS011;27987;51.468;5.464;2022-07-29T04:00:15;7.93;;;4.38;;
42336;SDS011;27987;51.468;5.464;2022-07-29T04:02:45;9.85;;;4.05;;
42336;SDS011;27987;51.468;5.464;2022-07-29T04:05:14;7.35;;;3.88;;
42336;SDS011;27987;51.468;5.464;2022-07-29T04:07:43;10.02;;;3.58;;
42336;SDS011;27987;51.468;5.464;2022-07-29T04:10:10;5.15;;;3.30;;
42336;SDS011;27987;51.468;5.464;2022-07-29T04:12:39;8.75;;;4.07;;
42336;SDS011;27987;51.468;5.464;2022-07-29T04:15:09;13.48;;;3.92;;
42336;SDS011;27987;51.468;5.464;2022-07-29T04:17:37;6.10;;;3.78;;
42336;SDS011;27987;51.468;5.464;2022-07-29T04:20:04;7.15;;;3.70;;
42336;SDS011;27987;51.468;5.464;2022-07-29T04:22:32;7.65;;;3.65;;
42336;SDS011;27987;51.468;5.464;2022-07-29T04:25:00;7.63;;;3.25;;
42336;SDS011;27987;51.468;5.464;2022-07-29T04:27:27;8.20;;;3.17;;
42336;SDS011;27987;51.468;5.464;2022-07-29T04:29:55;8.82;;;3.78;;
42336;SDS011;27987;51.468;5.464;2022-07-29T04:32:22;11.05;;;4.57;;
42336;SDS011;27987;51.468;5.464;2022-07-29T04:34:49;8.88;;;4.32;;
42336;SDS011;27987;51.468;5.464;2022-07-29T04:37:19;8.63;;;4.82;;
42336;SDS011;27987;51.468;5.464;2022-07-29T04:39:46;9.40;;;4.25;;
42336;SDS011;27987;51.468;5.464;2022-07-29T04:42:13;7.10;;;4.43;;
42336;SDS011;27987;51.468;5.464;2022-07-29T04:44:39;19.30;;;4.93;;
42336;SDS011;27987;51.468;5.464;2022-07-29T04:47:08;8.52;;;4.28;;
42336;SDS011;27987;51.468;5.464;2022-07-29T04:49:37;8.63;;;4.65;;
42336;SDS011;27987;51.468;5.464;2022-07-29T04:52:05;7.38;;;4.15;;
42336;SDS011;27987;51.468;5.464;2022-07-29T04:54:34;11.63;;;4.82;;
42336;SDS011;27987;51.468;5.464;2022-07-29T04:57:00;11.07;;;5.38;;
42336;SDS011;27987;51.468;5.464;2022-07-29T04:59:27;7.97;;;5.05;;
42336;SDS011;27987;51.468;5.464;2022-07-29T05:01:54;11.43;;;4.97;;
42336;SDS011;27987;51.468;5.464;2022-07-29T05:04:26;8.20;;;4.50;;
42336;SDS011;27987;51.468;5.464;2022-07-29T05:06:52;9.65;;;4.18;;
42336;SDS011;27987;51.468;5.464;2022-07-29T05:09:19;12.63;;;5.10;;
42336;SDS011;27987;51.468;5.464;2022-07-29T05:11:46;6.30;;;4.13;;
42336;SDS011;27987;51.468;5.464;2022-07-29T05:14:13;10.75;;;4.30;;
42336;SDS011;27987;51.468;5.464;2022-07-29T05:16:40;13.98;;;4.88;;
42336;SDS011;27987;51.468;5.464;2022-07-29T05:19:08;8.52;;;4.22;;
42336;SDS011;27987;51.468;5.464;2022-07-29T05:21:36;9.63;;;4.65;;
42336;SDS011;27987;51.468;5.464;2022-07-29T05:24:03;9.23;;;4.53;;
42336;SDS011;27987;51.468;5.464;2022-07-29T05:26:31;12.55;;;4.43;;
42336;SDS011;27987;51.468;5.464;2022-07-29T05:28:58;8.68;;;4.25;;
42336;SDS011;27987;51.468;5.464;2022-07-29T05:31:24;10.32;;;4.10;;
42336;SDS011;27987;51.468;5.464;2022-07-29T05:33:52;9.55;;;4.78;;
42336;SDS011;27987;51.468;5.464;2022-07-29T05:36:19;7.03;;;4.32;;
42336;SDS011;27987;51.468;5.464;2022-07-29T05:38:47;12.50;;;5.38;;
42336;SDS011;27987;51.468;5.464;2022-07-29T05:41:14;6.55;;;4.32;;
42336;SDS011;27987;51.468;5.464;2022-07-29T05:43:43;8.48;;;4.35;;
42336;SDS011;27987;51.468;5.464;2022-07-29T05:46:10;7.68;;;4.50;;
42336;SDS011;27987;51.468;5.464;2022-07-29T05:48:37;6.70;;;3.80;;
42336;SDS011;27987;51.468;5.464;2022-07-29T05:51:04;8.13;;;4.50;;
42336;SDS011;27987;51.468;5.464;2022-07-29T05:53:31;8.68;;;5.00;;
42336;SDS011;27987;51.468;5.464;2022-07-29T05:56:02;10.43;;;4.43;;
42336;SDS011;27987;51.468;5.464;2022-07-29T05:58:30;14.25;;;5.15;;
42336;SDS011;27987;51.468;5.464;2022-07-29T06:00:57;8.52;;;5.45;;
42336;SDS011;27987;51.468;5.464;2022-07-29T06:03:25;12.35;;;4.43;;
42336;SDS011;27987;51.468;5.464;2022-07-29T06:05:52;8.82;;;5.13;;
42336;SDS011;27987;51.468;5.464;2022-07-29T06:08:19;6.30;;;4.20;;
42336;SDS011;27987;51.468;5.464;2022-07-29T06:10:46;10.73;;;4.63;;
42336;SDS011;27987;51.468;5.464;2022-07-29T06:13:17;8.95;;;5.22;;
42336;SDS011;27987;51.468;5.464;2022-07-29T06:15:44;7.15;;;5.07;;
42336;SDS011;27987;51.468;5.464;2022-07-29T06:18:11;11.75;;;4.55;;
42336;SDS011;27987;51.468;5.464;2022-07-29T06:20:38;11.50;;;5.03;;
42336;SDS011;27987;51.468;5.464;2022-07-29T06:23:05;10.23;;;5.00;;
42336;SDS011;27987;51.468;5.464;2022-07-29T06:25:37;8.40;;;5.15;;
42336;SDS011;27987;51.468;5.464;2022-07-29T06:28:06;8.10;;;5.00;;
42336;SDS011;27987;51.468;5.464;2022-07-29T06:30:34;9.75;;;5.00;;
42336;SDS011;27987;51.468;5.464;2022-07-29T06:33:01;11.48;;;4.97;;
42336;SDS011;27987;51.468;5.464;2022-07-29T06:35:29;9.95;;;5.05;;
42336;SDS011;27987;51.468;5.464;2022-07-29T06:37:56;8.23;;;5.05;;
42336;SDS011;27987;51.468;5.464;2022-07-29T06:40:23;9.32;;;5.05;;
42336;SDS011;27987;51.468;5.464;2022-07-29T06:43:07;16.83;;;4.78;;
42336;SDS011;27987;51.468;5.464;2022-07-29T06:45:36;7.35;;;4.55;;
42336;SDS011;27987;51.468;5.464;2022-07-29T06:48:05;6.70;;;4.55;;
42336;SDS011;27987;51.468;5.464;2022-07-29T06:50:32;11.85;;;5.35;;
42336;SDS011;27987;51.468;5.464;2022-07-29T06:53:01;12.40;;;5.18;;
42336;SDS011;27987;51.468;5.464;2022-07-29T06:55:28;9.23;;;5.18;;
42336;SDS011;27987;51.468;5.464;2022-07-29T06:57:55;8.80;;;4.68;;
42336;SDS011;27987;51.468;5.464;2022-07-29T07:00:22;9.02;;;5.25;;
42336;SDS011;27987;51.468;5.464;2022-07-29T07:02:53;9.80;;;5.30;;
42336;SDS011;27987;51.468;5.464;2022-07-29T07:05:20;9.50;;;4.78;;
42336;SDS011;27987;51.468;5.464;2022-07-29T07:07:47;8.80;;;5.20;;
42336;SDS011;27987;51.468;5.464;2022-07-29T07:10:16;10.98;;;5.88;;
42336;SDS011;27987;51.468;5.464;2022-07-29T07:12:43;10.13;;;6.03;;
42336;SDS011;27987;51.468;5.464;2022-07-29T07:15:10;11.13;;;6.28;;
42336;SDS011;27987;51.468;5.464;2022-07-29T07:17:37;10.55;;;6.55;;
42336;SDS011;27987;51.468;5.464;2022-07-29T07:20:06;15.23;;;6.78;;
42336;SDS011;27987;51.468;5.464;2022-07-29T07:22:34;17.27;;;7.15;;
42336;SDS011;27987;51.468;5.464;2022-07-29T07:25:00;13.43;;;6.35;;
42336;SDS011;27987;51.468;5.464;2022-07-29T07:27:27;11.63;;;6.95;;
42336;SDS011;27987;51.468;5.464;2022-07-29T07:29:54;13.93;;;6.72;;
42336;SDS011;27987;51.468;5.464;2022-07-29T07:32:21;11.63;;;6.93;;
42336;SDS011;27987;51.468;5.464;2022-07-29T07:34:48;12.55;;;6.68;;
42336;SDS011;27987;51.468;5.464;2022-07-29T07:37:16;15.88;;;6.00;;
42336;SDS011;27987;51.468;5.464;2022-07-29T07:39:45;9.93;;;6.50;;
42336;SDS011;27987;51.468;5.464;2022-07-29T07:42:12;10.20;;;6.07;;
42336;SDS011;27987;51.468;5.464;2022-07-29T07:44:39;16.73;;;6.28;;
42336;SDS011;27987;51.468;5.464;2022-07-29T07:47:06;13.55;;;5.97;;
42336;SDS011;27987;51.468;5.464;2022-07-29T07:49:33;9.98;;;6.05;;
42336;SDS011;27987;51.468;5.464;2022-07-29T07:52:03;12.30;;;5.45;;
42336;SDS011;27987;51.468;5.464;2022-07-29T07:54:34;10.93;;;5.57;;
42336;SDS011;27987;51.468;5.464;2022-07-29T07:57:02;7.00;;;5.50;;
42336;SDS011;27987;51.468;5.464;2022-07-29T07:59:29;10.40;;;5.82;;
42336;SDS011;27987;51.468;5.464;2022-07-29T08:01:56;10.00;;;5.60;;
42336;SDS011;27987;51.468;5.464;2022-07-29T08:04:23;10.00;;;5.80;;
42336;SDS011;27987;51.468;5.464;2022-07-29T08:06:55;11.27;;;5.88;;
42336;SDS011;27987;51.468;5.464;2022-07-29T08:09:23;13.35;;;5.55;;
42336;SDS011;27987;51.468;5.464;2022-07-29T08:11:53;11.20;;;5.63;;
42336;SDS011;27987;51.468;5.464;2022-07-29T08:14:24;10.25;;;6.03;;
42336;SDS011;27987;51.468;5.464;2022-07-29T08:16:51;10.27;;;6.03;;
42336;SDS011;27987;51.468;5.464;2022-07-29T08:19:18;12.02;;;6.47;;
42336;SDS011;27987;51.468;5.464;2022-07-29T08:21:45;10.38;;;6.43;;
42336;SDS011;27987;51.468;5.464;2022-07-29T08:24:12;12.88;;;6.55;;
42336;SDS011;27987;51.468;5.464;2022-07-29T08:26:58;11.32;;;6.05;;
42336;SDS011;27987;51.468;5.464;2022-07-29T08:29:25;9.32;;;5.78;;
42336;SDS011;27987;51.468;5.464;2022-07-29T08:31:52;10.15;;;5.65;;
42336;SDS011;27987;51.468;5.464;2022-07-29T08:34:19;13.05;;;5.53;;
42336;SDS011;27987;51.468;5.464;2022-07-29T08:36:46;14.38;;;5.25;;
42336;SDS011;27987;51.468;5.464;2022-07-29T08:39:13;12.68;;;5.72;;
42336;SDS011;27987;51.468;5.464;2022-07-29T08:41:40;8.82;;;5.10;;
42336;SDS011;27987;51.468;5.464;2022-07-29T08:44:09;10.85;;;5.00;;
42336;SDS011;27987;51.468;5.464;2022-07-29T08:46:37;13.10;;;4.72;;
42336;SDS011;27987;51.468;5.464;2022-07-29T08:49:04;9.25;;;4.53;;
42336;SDS011;27987;51.468;5.464;2022-07-29T08:51:31;9.48;;;4.68;;
42336;SDS011;27987;51.468;5.464;2022-07-29T08:54:02;9.30;;;5.07;;
42336;SDS011;27987;51.468;5.464;2022-07-29T08:56:31;11.52;;;5.15;;
42336;SDS011;27987;51.468;5.464;2022-07-29T08:58:59;14.13;;;5.57;;
42336;SDS011;27987;51.468;5.464;2022-07-29T09:01:32;10.50;;;4.68;;
42336;SDS011;27987;51.468;5.464;2022-07-29T09:04:03;9.50;;;4.32;;
42336;SDS011;27987;51.468;5.464;2022-07-29T09:06:34;18.75;;;5.40;;
42336;SDS011;27987;51.468;5.464;2022-07-29T09:09:07;7.80;;;4.60;;
42336;SDS011;27987;51.468;5.464;2022-07-29T09:11:35;16.55;;;4.60;;
42336;SDS011;27987;51.468;5.464;2022-07-29T09:14:02;9.40;;;4.50;;
42336;SDS011;27987;51.468;5.464;2022-07-29T09:19:25;7.45;;;4.10;;
42336;SDS011;27987;51.468;5.464;2022-07-29T09:21:55;7.40;;;4.57;;
42336;SDS011;27987;51.468;5.464;2022-07-29T09:24:23;8.15;;;4.40;;
42336;SDS011;27987;51.468;5.464;2022-07-29T09:26:52;12.20;;;4.85;;
42336;SDS011;27987;51.468;5.464;2022-07-29T09:29:20;7.32;;;4.47;;
42336;SDS011;27987;51.468;5.464;2022-07-29T09:31:51;8.70;;;4.28;;
42336;SDS011;27987;51.468;5.464;2022-07-29T09:34:23;7.72;;;4.07;;
42336;SDS011;27987;51.468;5.464;2022-07-29T09:36:53;11.07;;;4.90;;
42336;SDS011;27987;51.468;5.464;2022-07-29T09:39:28;14.23;;;4.18;;
42336;SDS011;27987;51.468;5.464;2022-07-29T09:41:58;9.93;;;4.70;;
42336;SDS011;27987;51.468;5.464;2022-07-29T09:44:27;9.50;;;4.60;;
42336;SDS011;27987;51.468;5.464;2022-07-29T09:47:09;12.93;;;4.18;;
42336;SDS011;27987;51.468;5.464;2022-07-29T09:49:49;10.23;;;4.03;;
42336;SDS011;27987;51.468;5.464;2022-07-29T09:52:22;8.40;;;3.85;;
42336;SDS011;27987;51.468;5.464;2022-07-29T09:54:50;9.10;;;4.07;;
42336;SDS011;27987;51.468;5.464;2022-07-29T09:57:22;5.78;;;3.38;;
42336;SDS011;27987;51.468;5.464;2022-07-29T09:59:58;7.13;;;3.67;;
42336;SDS011;27987;51.468;5.464;2022-07-29T10:02:29;10.25;;;4.00;;
42336;SDS011;27987;51.468;5.464;2022-07-29T10:04:58;9.55;;;3.45;;
42336;SDS011;27987;51.468;5.464;2022-07-29T10:07:28;5.80;;;3.17;;
42336;SDS011;27987;51.468;5.464;2022-07-29T10:10:10;6.68;;;3.38;;
42336;SDS011;27987;51.468;5.464;2022-07-29T10:12:48;7.38;;;3.35;;
42336;SDS011;27987;51.468;5.464;2022-07-29T10:15:17;8.35;;;3.20;;
42336;SDS011;27987;51.468;5.464;2022-07-29T10:17:56;10.20;;;3.40;;
42336;SDS011;27987;51.468;5.464;2022-07-29T10:20:24;6.80;;;3.07;;
42336;SDS011;27987;51.468;5.464;2022-07-29T10:22:53;7.93;;;3.40;;
42336;SDS011;27987;51.468;5.464;2022-07-29T10:25:23;11.82;;;3.30;;
42336;SDS011;27987;51.468;5.464;2022-07-29T10:27:50;12.00;;;3.13;;
42336;SDS011;27987;51.468;5.464;2022-07-29T10:30:20;6.03;;;2.50;;
42336;SDS011;27987;51.468;5.464;2022-07-29T10:35:59;5.80;;;2.80;;
42336;SDS011;27987;51.468;5.464;2022-07-29T10:38:43;8.00;;;2.72;;
42336;SDS011;27987;51.468;5.464;2022-07-29T10:41:19;8.50;;;3.20;;
42336;SDS011;27987;51.468;5.464;2022-07-29T10:44:15;9.25;;;3.50;;
42336;SDS011;27987;51.468;5.464;2022-07-29T10:46:44;11.35;;;3.53;;
42336;SDS011;27987;51.468;5.464;2022-07-29T10:49:14;10.75;;;3.85;;
42336;SDS011;27987;51.468;5.464;2022-07-29T10:54:37;10.23;;;3.40;;
42336;SDS011;27987;51.468;5.464;2022-07-29T10:57:19;8.15;;;3.25;;
42336;SDS011;27987;51.468;5.464;2022-07-29T10:59:52;9.38;;;3.10;;
42336;SDS011;27987;51.468;5.464;2022-07-29T11:02:57;7.55;;;2.70;;
42336;SDS011;27987;51.468;5.464;2022-07-29T11:05:27;4.35;;;2.80;;
42336;SDS011;27987;51.468;5.464;2022-07-29T11:10:45;7.05;;;3.13;;
42336;SDS011;27987;51.468;5.464;2022-07-29T11:13:12;4.90;;;2.63;;
42336;SDS011;27987;51.468;5.464;2022-07-29T11:15:54;5.05;;;2.45;;
42336;SDS011;27987;51.468;5.464;2022-07-29T11:18:22;5.28;;;3.00;;
42336;SDS011;27987;51.468;5.464;2022-07-29T11:20:51;7.05;;;2.72;;
42336;SDS011;27987;51.468;5.464;2022-07-29T11:23:20;5.35;;;2.92;;
42336;SDS011;27987;51.468;5.464;2022-07-29T11:28:47;6.90;;;2.83;;
42336;SDS011;27987;51.468;5.464;2022-07-29T11:31:29;6.43;;;2.70;;
42336;SDS011;27987;51.468;5.464;2022-07-29T11:34:16;6.57;;;2.85;;
42336;SDS011;27987;51.468;5.464;2022-07-29T11:39:47;7.13;;;2.97;;
42336;SDS011;27987;51.468;5.464;2022-07-29T11:42:37;6.93;;;3.40;;
42336;SDS011;27987;51.468;5.464;2022-07-29T11:45:23;7.38;;;3.35;;
42336;SDS011;27987;51.468;5.464;2022-07-29T11:47:58;11.32;;;2.92;;
42336;SDS011;27987;51.468;5.464;2022-07-29T11:50:35;8.13;;;2.55;;
42336;SDS011;27987;51.468;5.464;2022-07-29T11:53:11;7.53;;;2.30;;
42336;SDS011;27987;51.468;5.464;2022-07-29T11:55:39;5.95;;;1.98;;
42336;SDS011;27987;51.468;5.464;2022-07-29T11:58:07;11.73;;;2.47;;
42336;SDS011;27987;51.468;5.464;2022-07-29T12:00:34;7.13;;;1.83;;
42336;SDS011;27987;51.468;5.464;2022-07-29T12:03:04;5.78;;;2.30;;
42336;SDS011;27987;51.468;5.464;2022-07-29T12:05:35;7.47;;;2.20;;
42336;SDS011;27987;51.468;5.464;2022-07-29T12:08:05;6.05;;;2.13;;
42336;SDS011;27987;51.468;5.464;2022-07-29T12:10:41;7.32;;;1.88;;
42336;SDS011;27987;51.468;5.464;2022-07-29T12:13:08;8.15;;;1.80;;
42336;SDS011;27987;51.468;5.464;2022-07-29T12:15:36;3.92;;;1.52;;
42336;SDS011;27987;51.468;5.464;2022-07-29T12:18:10;4.35;;;1.83;;
42336;SDS011;27987;51.468;5.464;2022-07-29T12:20:39;6.10;;;1.85;;
42336;SDS011;27987;51.468;5.464;2022-07-29T12:23:08;8.63;;;2.20;;
42336;SDS011;27987;51.468;5.464;2022-07-29T12:25:38;6.45;;;1.90;;
42336;SDS011;27987;51.468;5.464;2022-07-29T12:28:07;9.18;;;2.55;;
42336;SDS011;27987;51.468;5.464;2022-07-29T12:30:39;9.02;;;2.45;;
42336;SDS011;27987;51.468;5.464;2022-07-29T12:33:13;5.80;;;1.92;;
42336;SDS011;27987;51.468;5.464;2022-07-29T12:35:51;3.78;;;2.05;;
42336;SDS011;27987;51.468;5.464;2022-07-29T12:38:22;4.15;;;1.88;;
42336;SDS011;27987;51.468;5.464;2022-07-29T12:40:54;5.28;;;1.92;;
42336;SDS011;27987;51.468;5.464;2022-07-29T12:43:22;6.72;;;2.10;;
42336;SDS011;27987;51.468;5.464;2022-07-29T12:45:51;4.50;;;2.00;;
42336;SDS011;27987;51.468;5.464;2022-07-29T12:48:32;5.10;;;1.80;;
42336;SDS011;27987;51.468;5.464;2022-07-29T12:53:29;3.78;;;1.63;;
42336;SDS011;27987;51.468;5.464;2022-07-29T12:56:05;5.40;;;1.60;;
42336;SDS011;27987;51.468;5.464;2022-07-29T12:58:41;9.18;;;2.25;;
42336;SDS011;27987;51.468;5.464;2022-07-29T13:01:13;8.70;;;1.77;;
42336;SDS011;27987;51.468;5.464;2022-07-29T13:03:47;5.15;;;1.70;;
42336;SDS011;27987;51.468;5.464;2022-07-29T13:06:36;3.70;;;1.40;;
42336;SDS011;27987;51.468;5.464;2022-07-29T13:09:08;5.17;;;1.80;;
42336;SDS011;27987;51.468;5.464;2022-07-29T13:11:40;4.82;;;1.50;;
42336;SDS011;27987;51.468;5.464;2022-07-29T13:14:09;5.93;;;1.98;;
42336;SDS011;27987;51.468;5.464;2022-07-29T13:19:34;6.18;;;2.10;;
42336;SDS011;27987;51.468;5.464;2022-07-29T13:22:05;10.00;;;2.00;;
42336;SDS011;27987;51.468;5.464;2022-07-29T13:24:44;6.25;;;1.88;;
42336;SDS011;27987;51.468;5.464;2022-07-29T13:27:16;4.55;;;1.65;;
42336;SDS011;27987;51.468;5.464;2022-07-29T13:29:44;5.30;;;1.70;;
42336;SDS011;27987;51.468;5.464;2022-07-29T13:32:12;4.05;;;1.63;;
42336;SDS011;27987;51.468;5.464;2022-07-29T13:34:39;3.80;;;1.73;;
42336;SDS011;27987;51.468;5.464;2022-07-29T13:37:06;4.25;;;1.73;;
42336;SDS011;27987;51.468;5.464;2022-07-29T13:39:35;14.93;;;1.80;;
42336;SDS011;27987;51.468;5.464;2022-07-29T13:42:02;6.35;;;1.92;;
42336;SDS011;27987;51.468;5.464;2022-07-29T13:44:29;7.05;;;2.25;;
42336;SDS011;27987;51.468;5.464;2022-07-29T13:46:56;5.32;;;1.80;;
42336;SDS011;27987;51.468;5.464;2022-07-29T13:49:23;4.43;;;1.90;;
42336;SDS011;27987;51.468;5.464;2022-07-29T13:51:50;4.55;;;2.15;;
42336;SDS011;27987;51.468;5.464;2022-07-29T13:54:17;4.32;;;1.83;;
42336;SDS011;27987;51.468;5.464;2022-07-29T13:56:46;7.05;;;1.92;;
42336;SDS011;27987;51.468;5.464;2022-07-29T13:59:16;5.95;;;2.13;;
42336;SDS011;27987;51.468;5.464;2022-07-29T14:01:46;8.75;;;2.10;;
42336;SDS011;27987;51.468;5.464;2022-07-29T14:04:16;4.18;;;2.25;;
42336;SDS011;27987;51.468;5.464;2022-07-29T14:06:43;5.90;;;2.10;;
42336;SDS011;27987;51.468;5.464;2022-07-29T14:09:10;7.68;;;2.67;;
42336;SDS011;27987;51.468;5.464;2022-07-29T14:11:37;7.60;;;2.45;;
42336;SDS011;27987;51.468;5.464;2022-07-29T14:14:06;10.93;;;2.97;;
42336;SDS011;27987;51.468;5.464;2022-07-29T14:16:33;5.95;;;2.40;;
42336;SDS011;27987;51.468;5.464;2022-07-29T14:19:00;6.30;;;2.40;;
42336;SDS011;27987;51.468;5.464;2022-07-29T14:21:27;5.45;;;2.15;;
42336;SDS011;27987;51.468;5.464;2022-07-29T14:23:54;4.32;;;2.17;;
42336;SDS011;27987;51.468;5.464;2022-07-29T14:26:21;4.75;;;2.00;;
42336;SDS011;27987;51.468;5.464;2022-07-29T14:28:48;6.03;;;2.00;;
42336;SDS011;27987;51.468;5.464;2022-07-29T14:31:17;4.30;;;1.95;;
42336;SDS011;27987;51.468;5.464;2022-07-29T14:33:44;8.48;;;2.20;;
42336;SDS011;27987;51.468;5.464;2022-07-29T14:36:11;11.27;;;1.83;;
42336;SDS011;27987;51.468;5.464;2022-07-29T14:38:38;8.50;;;2.67;;
42336;SDS011;27987;51.468;5.464;2022-07-29T14:41:05;5.07;;;1.80;;
42336;SDS011;27987;51.468;5.464;2022-07-29T14:43:33;5.60;;;2.00;;
42336;SDS011;27987;51.468;5.464;2022-07-29T14:46:06;5.28;;;2.22;;
42336;SDS011;27987;51.468;5.464;2022-07-29T14:48:37;10.45;;;2.10;;
42336;SDS011;27987;51.468;5.464;2022-07-29T14:51:04;7.63;;;1.80;;
42336;SDS011;27987;51.468;5.464;2022-07-29T14:53:33;6.10;;;2.00;;
42336;SDS011;27987;51.468;5.464;2022-07-29T14:56:01;10.70;;;1.83;;
42336;SDS011;27987;51.468;5.464;2022-07-29T14:58:30;6.13;;;1.80;;
42336;SDS011;27987;51.468;5.464;2022-07-29T15:00:57;5.22;;;1.55;;
42336;SDS011;27987;51.468;5.464;2022-07-29T15:03:24;11.38;;;1.83;;
42336;SDS011;27987;51.468;5.464;2022-07-29T15:05:52;4.43;;;1.63;;
42336;SDS011;27987;51.468;5.464;2022-07-29T15:08:19;6.85;;;1.90;;
42336;SDS011;27987;51.468;5.464;2022-07-29T15:10:53;4.38;;;1.88;;
42336;SDS011;27987;51.468;5.464;2022-07-29T15:13:24;5.10;;;1.73;;
42336;SDS011;27987;51.468;5.464;2022-07-29T15:15:51;5.03;;;1.60;;
42336;SDS011;27987;51.468;5.464;2022-07-29T15:18:18;6.72;;;2.00;;
42336;SDS011;27987;51.468;5.464;2022-07-29T15:20:45;4.65;;;1.92;;
42336;SDS011;27987;51.468;5.464;2022-07-29T15:23:13;5.10;;;1.90;;
42336;SDS011;27987;51.468;5.464;2022-07-29T15:25:40;9.45;;;1.88;;